createdAt,value
2019-05-02T00:01:01.220Z,11.10
2019-05-02T00:03:31.392Z,11.10
2019-05-02T00:06:03.018Z,11.00
2019-05-02T00:08:33.196Z,10.90
2019-05-02T00:11:03.423Z,10.80
2019-05-02T00:13:32.618Z,10.80
2019-05-02T00:16:01.812Z,10.70
2019-05-02T00:18:32.063Z,10.80
2019-05-02T00:21:03.140Z,10.70
2019-05-02T00:23:32.344Z,10.70
2019-05-02T00:26:01.396Z,10.70
2019-05-02T00:28:30.491Z,10.60
2019-05-02T00:30:59.596Z,10.60
2019-05-02T00:33:29.245Z,10.60
2019-05-02T00:35:59.482Z,10.70
2019-05-02T00:38:33.368Z,10.60
2019-05-02T00:41:02.328Z,10.60
2019-05-02T00:43:34.584Z,10.50
2019-05-02T00:46:01.130Z,10.50
2019-05-02T00:48:38.159Z,10.40
2019-05-02T00:51:07.230Z,10.40
2019-05-02T00:53:36.346Z,10.40
2019-05-02T00:56:09.175Z,10.40
2019-05-02T00:58:36.494Z,10.30
2019-05-02T01:01:39.832Z,10.20
2019-05-02T01:04:15.324Z,10.20
2019-05-02T01:06:44.654Z,10.30
2019-05-02T01:09:15.327Z,10.30
2019-05-02T01:11:52.577Z,10.30
2019-05-02T01:14:21.512Z,10.20
2019-05-02T01:16:54.346Z,10.20
2019-05-02T01:19:21.345Z,10.20
2019-05-02T01:21:50.453Z,10.20
2019-05-02T01:24:19.532Z,10.10
2019-05-02T01:26:59.820Z,10.00
2019-05-02T01:29:34.180Z,10.00
2019-05-02T01:32:10.532Z,10.00
2019-05-02T01:35:10.556Z,9.90
2019-05-02T01:38:17.064Z,9.90
2019-05-02T01:40:52.605Z,9.90
2019-05-02T01:43:25.334Z,9.80
2019-05-02T01:45:54.882Z,9.80
2019-05-02T01:48:24.212Z,9.80
2019-05-02T01:50:53.243Z,9.70
2019-05-02T01:53:22.305Z,9.70
2019-05-02T01:55:51.892Z,9.70
2019-05-02T01:58:22.927Z,9.60
2019-05-02T02:00:51.998Z,9.60
2019-05-02T02:03:21.185Z,9.60
2019-05-02T02:05:50.188Z,9.60
2019-05-02T02:08:19.245Z,9.60
2019-05-02T02:10:50.722Z,9.50
2019-05-02T02:13:18.968Z,9.40
2019-05-02T02:15:48.157Z,9.40
2019-05-02T02:18:22.212Z,9.40
2019-05-02T02:21:11.240Z,9.40
2019-05-02T02:23:57.886Z,9.40
2019-05-02T02:26:26.935Z,9.40
2019-05-02T02:28:56.093Z,9.40
2019-05-02T02:31:25.635Z,9.30
2019-05-02T02:33:55.057Z,9.20
2019-05-02T02:36:31.255Z,9.20
2019-05-02T02:38:55.040Z,9.20
2019-05-02T02:41:24.093Z,9.10
2019-05-02T02:44:21.137Z,9.10
2019-05-02T02:46:50.821Z,9.10
2019-05-02T02:49:24.001Z,9.00
2019-05-02T02:51:50.630Z,9.10
2019-05-02T02:54:19.665Z,9.00
2019-05-02T02:56:48.662Z,9.00
2019-05-02T02:59:19.365Z,9.00
2019-05-02T03:01:48.510Z,8.90
2019-05-02T03:04:17.477Z,8.90
2019-05-02T03:06:47.202Z,8.90
2019-05-02T03:09:20.141Z,8.90
2019-05-02T03:12:06.226Z,8.80
2019-05-02T03:14:41.143Z,8.80
2019-05-02T03:17:09.027Z,8.80
2019-05-02T03:19:38.100Z,8.80
2019-05-02T03:22:07.624Z,8.80
2019-05-02T03:24:44.255Z,8.80
2019-05-02T03:27:08.160Z,8.80
2019-05-02T03:29:44.330Z,8.80
2019-05-02T03:32:16.900Z,8.80
2019-05-02T03:34:53.009Z,8.80
2019-05-02T03:37:13.950Z,8.70
2019-05-02T03:39:42.333Z,8.80
2019-05-02T03:42:11.450Z,8.80
2019-05-02T03:44:40.466Z,8.80
2019-05-02T03:47:09.574Z,8.80
2019-05-02T03:49:41.070Z,8.90
2019-05-02T03:52:09.507Z,9.00
2019-05-02T03:54:48.449Z,9.10
2019-05-02T03:57:09.228Z,9.10
2019-05-02T03:59:41.597Z,9.20
2019-05-02T04:02:14.081Z,9.20
2019-05-02T04:04:40.263Z,9.30
2019-05-02T04:07:10.123Z,9.40
2019-05-02T04:09:41.977Z,9.40
2019-05-02T04:12:18.739Z,9.50
2019-05-02T04:14:40.834Z,9.50
2019-05-02T04:17:11.232Z,9.50
2019-05-02T04:19:40.413Z,9.50
2019-05-02T04:22:11.911Z,9.50
2019-05-02T04:24:40.773Z,9.50
2019-05-02T04:27:09.829Z,9.50
2019-05-02T04:29:39.189Z,9.60
2019-05-02T04:32:11.818Z,9.70
2019-05-02T04:34:39.000Z,9.80
2019-05-02T04:37:07.950Z,9.90
2019-05-02T04:39:39.123Z,10.00
2019-05-02T04:42:13.217Z,10.00
2019-05-02T04:44:44.639Z,10.00
2019-05-02T04:47:14.150Z,10.10
2019-05-02T04:49:39.929Z,10.20
2019-05-02T04:52:12.284Z,10.30
2019-05-02T04:54:40.131Z,10.30
2019-05-02T04:57:09.153Z,10.00
2019-05-02T04:59:39.480Z,10.10
2019-05-02T05:02:09.477Z,10.20
2019-05-02T05:04:42.766Z,10.10
2019-05-02T05:07:09.570Z,10.10
2019-05-02T05:09:40.017Z,10.00
2019-05-02T05:12:09.780Z,9.80
2019-05-02T05:14:43.104Z,9.90
2019-05-02T05:17:09.644Z,10.00
2019-05-02T05:19:38.564Z,10.10
2019-05-02T05:22:11.720Z,10.00
2019-05-02T05:24:43.487Z,10.00
2019-05-02T05:27:13.392Z,10.00
2019-05-02T05:29:45.910Z,10.00
2019-05-02T05:32:13.822Z,10.10
2019-05-02T05:34:42.631Z,10.20
2019-05-02T05:37:13.385Z,10.20
2019-05-02T05:39:43.039Z,10.20
2019-05-02T05:42:12.906Z,10.10
2019-05-02T05:44:41.795Z,10.20
2019-05-02T05:47:12.220Z,10.20
2019-05-02T05:49:41.547Z,10.30
2019-05-02T05:52:10.505Z,10.30
2019-05-02T05:54:42.024Z,10.50
2019-05-02T05:57:12.128Z,10.60
2019-05-02T05:59:40.582Z,10.90
2019-05-02T06:02:12.654Z,11.10
2019-05-02T06:04:40.560Z,11.40
2019-05-02T06:07:09.548Z,11.30
2019-05-02T06:09:38.746Z,11.40
2019-05-02T06:12:07.714Z,11.10
2019-05-02T06:14:36.564Z,11.20
2019-05-02T06:17:05.575Z,11.20
2019-05-02T06:19:34.486Z,11.30
2019-05-02T06:22:03.490Z,11.40
2019-05-02T06:24:34.020Z,11.60
2019-05-02T06:27:02.999Z,11.50
2019-05-02T06:29:31.971Z,11.60
2019-05-02T06:32:02.854Z,11.70
2019-05-02T06:34:31.919Z,11.80
2019-05-02T06:37:01.237Z,11.70
2019-05-02T06:39:32.008Z,11.50
2019-05-02T06:42:01.054Z,11.60
2019-05-02T06:44:30.023Z,11.60
2019-05-02T06:47:03.920Z,11.70
2019-05-02T06:49:29.826Z,11.60
2019-05-02T06:51:58.693Z,11.50
2019-05-02T06:54:27.705Z,11.60
2019-05-02T06:56:56.749Z,11.60
2019-05-02T06:59:25.832Z,11.70
2019-05-02T07:01:57.551Z,11.60
2019-05-02T07:04:25.607Z,11.70
2019-05-02T07:07:13.791Z,11.70
2019-05-02T07:09:43.213Z,11.60
2019-05-02T07:12:14.813Z,11.50
2019-05-02T07:14:45.699Z,11.50
2019-05-02T07:17:32.427Z,11.50
2019-05-02T07:20:05.325Z,11.50
2019-05-02T07:22:38.618Z,11.70
2019-05-02T07:25:06.861Z,11.60
2019-05-02T07:27:39.026Z,11.50
2019-05-02T07:30:08.995Z,11.40
2019-05-02T07:32:37.930Z,11.60
2019-05-02T07:35:07.147Z,11.60
2019-05-02T07:37:36.060Z,11.80
2019-05-02T07:40:05.883Z,11.80
2019-05-02T07:42:36.897Z,12.00
2019-05-02T07:45:09.322Z,12.20
2019-05-02T07:47:40.371Z,12.20
2019-05-02T07:50:10.416Z,12.30
2019-05-02T07:52:41.071Z,12.30
2019-05-02T07:55:10.223Z,12.20
2019-05-02T07:57:39.197Z,12.40
2019-05-02T08:00:09.042Z,12.60
2019-05-02T08:02:37.971Z,12.60
2019-05-02T08:05:08.810Z,12.60
2019-05-02T08:07:38.117Z,12.60
2019-05-02T08:10:07.399Z,12.70
2019-05-02T08:12:36.362Z,12.80
2019-05-02T08:15:12.551Z,12.90
2019-05-02T08:17:38.109Z,12.90
2019-05-02T08:20:08.617Z,12.70
2019-05-02T08:22:37.827Z,12.60
2019-05-02T08:25:10.574Z,12.70
2019-05-02T08:27:44.338Z,12.80
2019-05-02T08:30:26.845Z,12.90
2019-05-02T08:32:55.795Z,12.90
2019-05-02T08:35:27.887Z,13.00
2019-05-02T08:37:56.278Z,12.90
2019-05-02T08:40:25.458Z,13.10
2019-05-02T08:42:54.441Z,13.40
2019-05-02T08:45:23.438Z,13.50
2019-05-02T08:47:52.353Z,13.40
2019-05-02T08:50:21.272Z,13.40
2019-05-02T08:52:50.315Z,13.60
2019-05-02T08:55:19.179Z,13.40
2019-05-02T08:57:48.153Z,13.30
2019-05-02T09:00:17.327Z,13.10
2019-05-02T09:02:46.356Z,13.00
2019-05-02T09:05:15.462Z,13.30
2019-05-02T09:07:44.435Z,13.50
2019-05-02T09:10:13.691Z,13.70
2019-05-02T09:12:45.477Z,14.10
2019-05-02T09:15:13.766Z,14.30
2019-05-02T09:17:51.771Z,14.70
2019-05-02T09:20:20.577Z,15.30
2019-05-02T09:22:51.381Z,15.60
2019-05-02T09:25:18.378Z,15.40
2019-05-02T09:27:47.244Z,15.30
2019-05-02T09:30:17.209Z,15.30
2019-05-02T09:32:47.026Z,15.50
2019-05-02T09:35:16.070Z,15.40
2019-05-02T09:37:45.038Z,15.00
2019-05-02T09:40:16.649Z,15.20
2019-05-02T09:42:47.484Z,15.60
2019-05-02T09:45:27.478Z,15.70
2019-05-02T09:48:01.503Z,16.70
2019-05-02T09:50:29.485Z,17.00
2019-05-02T09:52:54.999Z,16.50
2019-05-02T09:55:24.069Z,17.00
2019-05-02T09:57:53.222Z,17.40
2019-05-02T10:00:36.390Z,17.70
2019-05-02T10:03:06.862Z,18.20
2019-05-02T10:05:35.921Z,18.50
2019-05-02T10:08:06.846Z,20.60
2019-05-02T10:10:37.141Z,21.70
2019-05-02T10:13:07.624Z,22.60
2019-05-02T10:15:36.719Z,22.70
2019-05-02T10:18:10.638Z,21.60
2019-05-02T10:20:36.927Z,20.60
2019-05-02T10:23:06.044Z,19.70
2019-05-02T10:25:38.453Z,19.40
2019-05-02T10:28:05.925Z,20.10
2019-05-02T10:30:36.126Z,19.50
2019-05-02T10:33:05.674Z,19.80
2019-05-02T10:35:40.720Z,22.00
2019-05-02T10:38:09.541Z,23.70
2019-05-02T10:40:39.698Z,24.60
2019-05-02T10:43:08.716Z,25.80
2019-05-02T10:45:39.044Z,26.30
2019-05-02T10:48:21.505Z,25.80
2019-05-02T10:50:44.355Z,25.50
2019-05-02T10:53:15.721Z,24.30
2019-05-02T10:55:44.113Z,24.00
2019-05-02T10:58:13.098Z,21.60
2019-05-02T11:00:45.269Z,22.90
2019-05-02T11:03:28.282Z,24.50
2019-05-02T11:06:05.653Z,25.70
2019-05-02T11:08:31.717Z,25.80
2019-05-02T11:11:02.357Z,27.50
2019-05-02T11:13:55.397Z,27.80
2019-05-02T11:16:42.846Z,27.70
2019-05-02T11:19:45.830Z,26.50
2019-05-02T11:22:15.006Z,26.80
2019-05-02T11:24:43.850Z,26.30
2019-05-02T11:27:12.900Z,26.50
2019-05-02T11:29:42.607Z,27.40
2019-05-02T11:32:12.825Z,27.90
2019-05-02T11:34:42.102Z,27.20
2019-05-02T11:37:12.132Z,26.50
2019-05-02T11:39:46.526Z,26.40
2019-05-02T11:42:12.535Z,27.10
2019-05-02T11:44:41.869Z,27.40
2019-05-02T11:47:12.584Z,26.70
2019-05-02T11:49:42.530Z,26.70
2019-05-02T11:52:12.609Z,25.30
2019-05-02T11:54:46.814Z,24.10
2019-05-02T11:57:12.090Z,23.80
2019-05-02T11:59:42.504Z,24.10
2019-05-02T12:02:21.954Z,25.30
2019-05-02T12:04:54.280Z,25.50
2019-05-02T12:07:23.093Z,25.50
2019-05-02T12:09:57.020Z,25.40
2019-05-02T12:12:27.335Z,24.10
2019-05-02T12:14:53.926Z,25.00
2019-05-02T12:17:22.856Z,24.40
2019-05-02T12:19:52.344Z,23.80
2019-05-02T12:22:22.597Z,23.90
2019-05-02T12:24:51.956Z,24.20
2019-05-02T12:27:22.056Z,24.30
2019-05-02T12:29:57.754Z,24.70
2019-05-02T12:32:22.463Z,24.40
2019-05-02T12:34:52.627Z,24.00
2019-05-02T12:37:22.002Z,24.40
2019-05-02T12:39:51.711Z,24.50
2019-05-02T12:42:23.823Z,24.70
2019-05-02T12:44:53.239Z,25.40
2019-05-02T12:47:22.630Z,25.80
2019-05-02T12:49:52.053Z,26.00
2019-05-02T12:52:22.541Z,26.70
2019-05-02T12:54:52.563Z,28.10
2019-05-02T12:57:22.045Z,26.00
2019-05-02T12:59:52.480Z,24.60
2019-05-02T13:02:35.260Z,23.50
2019-05-02T13:05:04.481Z,22.30
2019-05-02T13:07:33.405Z,22.30
2019-05-02T13:10:02.583Z,21.70
2019-05-02T13:12:34.655Z,21.40
2019-05-02T13:15:03.819Z,19.30
2019-05-02T13:17:37.200Z,21.30
2019-05-02T13:20:04.613Z,21.00
2019-05-02T13:22:55.941Z,21.30
2019-05-02T13:25:27.406Z,21.50
2019-05-02T13:27:56.949Z,21.30
2019-05-02T13:30:42.971Z,21.40
2019-05-02T13:33:08.007Z,21.20
2019-05-02T13:35:49.260Z,20.70
2019-05-02T13:38:22.395Z,20.20
2019-05-02T13:40:51.835Z,20.90
2019-05-02T13:43:22.589Z,21.10
2019-05-02T13:46:15.381Z,20.60
2019-05-02T13:48:44.321Z,20.70
2019-05-02T13:51:13.299Z,20.80
2019-05-02T13:53:54.830Z,20.80
2019-05-02T13:56:45.748Z,20.30
2019-05-02T13:59:15.218Z,20.50
2019-05-02T14:01:45.341Z,20.90
2019-05-02T14:04:15.187Z,21.40
2019-05-02T14:06:44.477Z,21.80
2019-05-02T14:09:43.888Z,22.00
2019-05-02T14:12:32.092Z,21.90
2019-05-02T14:15:02.999Z,22.00
2019-05-02T14:17:32.619Z,21.40
2019-05-02T14:20:10.445Z,21.20
2019-05-02T14:22:32.599Z,20.90
2019-05-02T14:25:01.976Z,20.50
2019-05-02T14:27:32.066Z,20.40
2019-05-02T14:30:02.424Z,20.20
2019-05-02T14:32:32.909Z,20.00
2019-05-02T14:35:28.250Z,20.30
2019-05-02T14:38:13.114Z,20.60
2019-05-02T14:40:52.135Z,20.20
2019-05-02T14:43:44.565Z,20.20
2019-05-02T14:46:10.038Z,19.90
2019-05-02T14:48:45.101Z,20.30
2019-05-02T14:51:16.649Z,20.30
2019-05-02T14:53:43.231Z,20.40
2019-05-02T14:56:17.216Z,20.40
2019-05-02T14:58:46.233Z,20.40
2019-05-02T15:01:17.243Z,20.60
2019-05-02T15:03:45.983Z,20.30
2019-05-02T15:06:15.097Z,19.80
2019-05-02T15:08:44.986Z,19.80
2019-05-02T15:11:13.951Z,19.90
2019-05-02T15:13:43.652Z,19.90
2019-05-02T15:16:18.006Z,19.80
2019-05-02T15:18:47.525Z,19.40
2019-05-02T15:21:22.883Z,19.10
2019-05-02T15:23:54.435Z,19.10
2019-05-02T15:26:26.452Z,18.90
2019-05-02T15:28:53.475Z,18.70
2019-05-02T15:31:28.554Z,18.70
2019-05-02T15:34:11.994Z,18.50
2019-05-02T15:36:45.742Z,18.00
2019-05-02T15:41:44.797Z,17.20
2019-05-02T15:44:14.665Z,17.20
2019-05-02T15:46:43.702Z,17.00
2019-05-02T15:49:12.638Z,17.00
2019-05-02T15:51:45.061Z,17.10
2019-05-02T15:54:12.658Z,17.30
2019-05-02T15:57:00.694Z,17.40
2019-05-02T15:59:32.668Z,17.40
2019-05-02T16:02:08.047Z,17.30
2019-05-02T16:04:38.486Z,17.30
2019-05-02T16:07:08.495Z,17.20
2019-05-02T16:09:37.690Z,17.20
2019-05-02T16:12:06.726Z,17.20
2019-05-02T16:14:36.134Z,17.00
2019-05-02T16:17:05.429Z,17.00
2019-05-02T16:19:38.699Z,16.50
2019-05-02T16:22:12.932Z,16.00
2019-05-02T16:24:43.997Z,15.90
2019-05-02T16:27:16.548Z,15.80
2019-05-02T16:29:43.417Z,15.70
2019-05-02T16:32:35.634Z,15.50
2019-05-02T16:35:12.203Z,15.20
2019-05-02T16:37:37.138Z,14.50
2019-05-02T16:40:08.053Z,14.00
2019-05-02T16:42:37.494Z,13.70
2019-05-02T16:45:08.753Z,13.50
2019-05-02T16:47:37.763Z,13.50
2019-05-02T16:50:08.041Z,13.60
2019-05-02T16:52:38.030Z,13.60
2019-05-02T16:55:13.673Z,13.80
2019-05-02T16:57:39.558Z,14.00
2019-05-02T17:00:11.354Z,14.10
2019-05-02T17:02:43.545Z,14.10
2019-05-02T17:05:12.139Z,14.10
2019-05-02T17:07:54.515Z,14.00
2019-05-02T17:10:28.411Z,14.00
2019-05-02T17:13:02.630Z,14.00
2019-05-02T17:15:35.682Z,14.10
2019-05-02T17:18:12.774Z,14.20
2019-05-02T17:20:37.355Z,14.20
2019-05-02T17:23:07.594Z,14.00
2019-05-02T17:25:37.064Z,13.80
2019-05-02T17:28:10.378Z,13.90
2019-05-02T17:30:39.004Z,13.90
2019-05-02T17:33:14.465Z,14.00
2019-05-02T17:35:43.425Z,14.00
2019-05-02T17:38:09.636Z,14.00
2019-05-02T17:40:38.550Z,13.90
2019-05-02T17:43:07.603Z,14.00
2019-05-02T17:45:38.745Z,13.80
2019-05-02T17:48:15.258Z,13.80
2019-05-02T17:51:02.291Z,13.80
2019-05-02T17:53:33.611Z,13.90
2019-05-02T17:56:02.125Z,13.80
2019-05-02T17:58:31.837Z,13.70
2019-05-02T18:01:02.797Z,13.50
2019-05-02T18:03:35.165Z,13.60
2019-05-02T18:06:07.717Z,13.60
2019-05-02T18:08:34.442Z,13.60
2019-05-02T18:11:03.532Z,13.60
2019-05-02T18:13:33.853Z,13.70
2019-05-02T18:16:07.667Z,13.60
2019-05-02T18:18:37.559Z,13.60
2019-05-02T18:21:05.217Z,13.70
2019-05-02T18:23:36.311Z,13.60
2019-05-02T18:26:06.382Z,13.50
2019-05-02T18:28:46.250Z,13.40
2019-05-02T18:31:06.460Z,13.40
2019-05-02T18:33:35.944Z,13.60
2019-05-02T18:36:06.724Z,13.60
2019-05-02T18:38:35.871Z,13.60
2019-05-02T18:41:06.162Z,13.60
2019-05-02T18:43:36.114Z,13.70
2019-05-02T18:46:07.695Z,13.40
2019-05-02T18:48:44.223Z,13.40
2019-05-02T18:51:07.689Z,13.30
2019-05-02T18:53:36.547Z,13.30
2019-05-02T18:56:05.596Z,13.30
2019-05-02T18:58:36.392Z,13.30
2019-05-02T19:01:08.381Z,13.10
2019-05-02T19:03:37.769Z,13.10
2019-05-02T19:06:06.781Z,13.00
2019-05-02T19:08:45.634Z,12.90
2019-05-02T19:11:12.244Z,12.90
2019-05-02T19:13:42.741Z,12.90
2019-05-02T19:16:12.919Z,13.00
2019-05-02T19:18:42.521Z,13.00
2019-05-02T19:21:12.595Z,13.00
2019-05-02T19:23:42.505Z,12.90
2019-05-02T19:26:19.210Z,12.90
2019-05-02T19:29:14.095Z,12.90
2019-05-02T19:31:48.009Z,13.00
2019-05-02T19:34:22.937Z,13.00
2019-05-02T19:36:52.652Z,13.10
2019-05-02T19:39:24.037Z,12.90
2019-05-02T19:41:52.535Z,13.00
2019-05-02T19:44:29.206Z,13.10
2019-05-02T19:46:52.414Z,13.20
2019-05-02T19:49:22.410Z,13.20
2019-05-02T19:51:56.650Z,13.20
2019-05-02T19:54:23.225Z,13.30
2019-05-02T19:56:52.535Z,13.20
2019-05-02T19:59:25.358Z,13.30
2019-05-02T20:01:56.812Z,13.20
2019-05-02T20:04:29.440Z,13.30
2019-05-02T20:07:05.740Z,13.30
2019-05-02T20:09:38.146Z,13.30
2019-05-02T20:12:15.484Z,13.40
2019-05-02T20:15:01.748Z,13.50
2019-05-02T20:17:32.539Z,13.50
2019-05-02T20:20:07.055Z,13.60
2019-05-02T20:22:36.289Z,13.60
2019-05-02T20:25:06.314Z,13.70
2019-05-02T20:27:35.702Z,13.70
2019-05-02T20:30:05.939Z,13.60
2019-05-02T20:32:35.817Z,13.70
2019-05-02T20:35:04.938Z,13.80
2019-05-02T20:37:33.970Z,13.70
2019-05-02T20:40:03.053Z,13.60
2019-05-02T20:42:32.293Z,13.50
2019-05-02T20:45:02.705Z,13.60
2019-05-02T20:47:31.783Z,13.50
2019-05-02T20:50:02.675Z,13.50
2019-05-02T20:52:32.345Z,13.40
2019-05-02T20:55:01.848Z,13.40
2019-05-02T20:57:31.835Z,13.30
2019-05-02T21:00:01.639Z,13.10
2019-05-02T21:02:31.896Z,13.00
2019-05-02T21:05:02.761Z,12.80
2019-05-02T21:08:06.239Z,12.70
2019-05-02T21:10:38.561Z,12.50
2019-05-02T21:13:07.604Z,12.30
2019-05-02T21:15:36.654Z,12.20
2019-05-02T21:18:05.845Z,12.00
2019-05-02T21:20:35.278Z,11.80
2019-05-02T21:23:04.385Z,11.90
2019-05-02T21:25:33.569Z,11.90
2019-05-02T21:28:02.902Z,11.90
2019-05-02T21:30:34.161Z,11.90
2019-05-02T21:33:03.181Z,12.00
2019-05-02T21:35:32.365Z,12.10
2019-05-02T21:38:01.380Z,12.10
2019-05-02T21:40:32.556Z,12.00
2019-05-02T21:43:02.478Z,12.00
2019-05-02T21:45:32.052Z,12.00
2019-05-02T21:48:02.314Z,12.00
2019-05-02T21:50:40.014Z,12.10
2019-05-02T21:53:19.793Z,12.10
2019-05-02T21:56:02.898Z,11.90
2019-05-02T21:58:32.408Z,12.00
2019-05-02T22:01:09.428Z,11.70
2019-05-02T22:03:39.320Z,11.60
2019-05-02T22:06:08.500Z,11.50
2019-05-02T22:08:37.547Z,11.40
2019-05-02T22:11:06.680Z,11.30
2019-05-02T22:13:36.104Z,11.30
2019-05-02T22:16:05.177Z,11.30
2019-05-02T22:18:34.153Z,11.30
2019-05-02T22:21:03.235Z,11.20
2019-05-02T22:23:33.987Z,11.10
2019-05-02T22:26:03.109Z,11.00
2019-05-02T22:28:32.717Z,10.80
2019-05-02T22:31:03.233Z,10.70
2019-05-02T22:33:32.808Z,10.80
2019-05-02T22:36:01.983Z,10.90
2019-05-02T22:38:38.647Z,10.80
2019-05-02T22:41:07.720Z,10.80
2019-05-02T22:43:36.672Z,10.70
2019-05-02T22:46:06.864Z,10.60
2019-05-02T22:48:35.813Z,10.60
2019-05-02T22:51:04.818Z,10.60
2019-05-02T22:53:33.743Z,10.60
2019-05-02T22:56:03.149Z,10.60
2019-05-02T22:58:32.657Z,10.60
2019-05-02T23:01:01.920Z,10.60
2019-05-02T23:03:32.711Z,10.60
2019-05-02T23:06:01.817Z,10.50
2019-05-02T23:08:30.914Z,10.60
2019-05-02T23:10:59.911Z,10.50
2019-05-02T23:13:28.814Z,10.60
2019-05-02T23:15:57.755Z,10.60
2019-05-02T23:18:26.708Z,10.60
2019-05-02T23:20:55.590Z,10.60
2019-05-02T23:23:24.500Z,10.60
2019-05-02T23:26:12.844Z,10.70
2019-05-02T23:28:44.171Z,10.80
2019-05-02T23:31:14.022Z,10.80
2019-05-02T23:33:58.195Z,10.70
2019-05-02T23:36:28.700Z,10.60
2019-05-02T23:38:58.075Z,10.70
2019-05-02T23:41:27.419Z,10.60
2019-05-02T23:43:56.536Z,10.50
2019-05-02T23:46:25.454Z,10.50
2019-05-02T23:48:54.303Z,10.60
2019-05-02T23:51:23.303Z,10.70
2019-05-02T23:53:52.814Z,10.70
2019-05-02T23:56:22.138Z,10.70
2019-05-02T23:58:51.959Z,10.60
